createdAt,value
2023-05-08T00:00:47.492Z,1.01
2023-05-08T00:01:47.505Z,0.99
2023-05-08T00:02:47.631Z,1.02
2023-05-08T00:03:47.769Z,1.01
2023-05-08T00:04:47.647Z,1.02
2023-05-08T00:05:47.633Z,1.04
2023-05-08T00:06:47.670Z,1.03
2023-05-08T00:07:47.697Z,1.03
2023-05-08T00:08:47.740Z,1.03
2023-05-08T00:09:47.770Z,1.04
2023-05-08T00:10:47.785Z,1.01
2023-05-08T00:11:47.835Z,1.02
2023-05-08T00:12:47.880Z,1.03
2023-05-08T00:13:47.873Z,1.03
2023-05-08T00:14:47.900Z,1.03
2023-05-08T00:15:47.927Z,1.02
2023-05-08T00:16:48.010Z,1.00
2023-05-08T00:17:48.040Z,1.03
2023-05-08T00:18:48.024Z,1.02
2023-05-08T00:19:48.069Z,1.02
2023-05-08T00:20:48.098Z,1.02
2023-05-08T00:21:48.130Z,1.01
2023-05-08T00:22:48.180Z,1.01
2023-05-08T00:23:48.216Z,1.02
2023-05-08T00:24:48.254Z,1.02
2023-05-08T00:25:48.293Z,1.02
2023-05-08T00:26:48.324Z,1.03
2023-05-08T00:27:48.352Z,1.02
2023-05-08T00:28:48.401Z,1.03
2023-05-08T00:29:48.436Z,1.01
2023-05-08T00:30:48.465Z,1.03
2023-05-08T00:31:48.537Z,1.02
2023-05-08T00:32:48.550Z,1.01
2023-05-08T00:33:48.572Z,1.01
2023-05-08T00:34:48.604Z,1.03
2023-05-08T00:35:48.627Z,1.01
2023-05-08T00:36:48.672Z,1.02
2023-05-08T00:37:48.704Z,1.02
2023-05-08T00:38:48.737Z,1.02
2023-05-08T00:39:48.780Z,1.02
2023-05-08T00:40:48.798Z,1.02
2023-05-08T00:41:48.859Z,1.01
2023-05-08T00:42:48.898Z,1.02
2023-05-08T00:43:48.903Z,1.00
2023-05-08T00:44:48.965Z,1.01
2023-05-08T00:45:49.018Z,1.02
2023-05-08T00:46:49.084Z,1.01
2023-05-08T00:47:49.063Z,1.02
2023-05-08T00:48:49.067Z,1.02
2023-05-08T00:49:49.111Z,1.02
2023-05-08T00:50:49.136Z,1.02
2023-05-08T00:51:49.181Z,1.02
2023-05-08T00:52:49.196Z,1.03
2023-05-08T00:53:49.228Z,0.99
2023-05-08T00:54:49.268Z,1.02
2023-05-08T00:55:49.289Z,1.01
2023-05-08T00:56:49.339Z,1.02
2023-05-08T00:57:49.366Z,1.02
2023-05-08T00:58:49.411Z,1.02
2023-05-08T00:59:49.441Z,1.01
2023-05-08T01:00:49.470Z,1.01
2023-05-08T01:01:49.538Z,1.02
2023-05-08T01:02:49.604Z,1.01
2023-05-08T01:03:49.699Z,1.01
2023-05-08T01:04:49.602Z,1.01
2023-05-08T01:05:49.634Z,1.04
2023-05-08T01:06:49.668Z,1.02
2023-05-08T01:07:49.701Z,1.01
2023-05-08T01:08:49.734Z,1.02
2023-05-08T01:09:49.766Z,1.01
2023-05-08T01:10:49.799Z,1.01
2023-05-08T01:11:49.837Z,1.02
2023-05-08T01:12:49.938Z,1.02
2023-05-08T01:13:49.919Z,1.03
2023-05-08T01:14:49.957Z,1.02
2023-05-08T01:15:50.028Z,1.02
2023-05-08T01:16:50.038Z,1.02
2023-05-08T01:17:50.099Z,1.01
2023-05-08T01:18:50.095Z,1.03
2023-05-08T01:19:50.132Z,1.02
2023-05-08T01:20:50.171Z,1.03
2023-05-08T01:21:50.212Z,1.01
2023-05-08T01:22:50.240Z,1.01
2023-05-08T01:23:50.277Z,1.03
2023-05-08T01:24:50.298Z,1.04
2023-05-08T01:25:50.353Z,1.02
2023-05-08T01:26:50.379Z,1.03
2023-05-08T01:27:50.408Z,1.03
2023-05-08T01:28:50.435Z,1.04
2023-05-08T01:29:50.469Z,1.01
2023-05-08T01:30:50.517Z,1.01
2023-05-08T01:31:50.550Z,1.02
2023-05-08T01:32:50.710Z,1.03
2023-05-08T01:33:50.657Z,1.00
2023-05-08T01:34:50.643Z,1.02
2023-05-08T01:35:50.677Z,1.02
2023-05-08T01:36:50.704Z,1.01
2023-05-08T01:37:50.749Z,1.01
2023-05-08T01:38:50.778Z,1.02
2023-05-08T01:39:51.328Z,1.01
2023-05-08T01:40:50.846Z,1.02
2023-05-08T01:41:50.875Z,1.02
2023-05-08T01:42:50.911Z,1.02
2023-05-08T01:43:50.949Z,1.03
2023-05-08T01:44:50.980Z,1.02
2023-05-08T01:45:51.017Z,1.00
2023-05-08T01:46:51.153Z,1.04
2023-05-08T01:47:51.144Z,1.02
2023-05-08T01:48:51.128Z,1.02
2023-05-08T01:49:51.173Z,1.01
2023-05-08T01:50:51.204Z,1.02
2023-05-08T01:51:51.246Z,1.02
2023-05-08T01:52:51.286Z,1.03
2023-05-08T01:53:51.374Z,1.03
2023-05-08T01:54:51.355Z,1.03
2023-05-08T01:55:51.399Z,1.02
2023-05-08T01:56:51.431Z,1.05
2023-05-08T01:57:51.467Z,1.02
2023-05-08T01:58:51.512Z,1.00
2023-05-08T01:59:51.551Z,1.02
2023-05-08T02:00:51.660Z,1.03
2023-05-08T02:01:51.701Z,1.02
2023-05-08T02:02:51.718Z,1.02
2023-05-08T02:03:51.727Z,1.01
2023-05-08T02:04:51.744Z,1.02
2023-05-08T02:05:51.778Z,1.03
2023-05-08T02:06:51.803Z,1.02
2023-05-08T02:07:51.847Z,1.02
2023-05-08T02:08:51.878Z,1.02
2023-05-08T02:09:51.912Z,1.02
2023-05-08T02:10:51.957Z,1.02
2023-05-08T02:11:51.981Z,1.03
2023-05-08T02:12:52.073Z,1.01
2023-05-08T02:13:52.081Z,1.02
2023-05-08T02:14:52.099Z,0.99
2023-05-08T02:15:52.124Z,1.03
2023-05-08T02:16:52.215Z,1.02
2023-05-08T02:17:52.288Z,1.02
2023-05-08T02:18:52.230Z,1.01
2023-05-08T02:19:52.262Z,1.03
2023-05-08T02:20:52.299Z,1.02
2023-05-08T02:21:52.348Z,1.01
2023-05-08T02:22:52.361Z,1.03
2023-05-08T02:23:52.416Z,1.00
2023-05-08T02:24:52.430Z,1.01
2023-05-08T02:25:52.471Z,1.01
2023-05-08T02:26:52.505Z,1.00
2023-05-08T02:27:52.539Z,1.03
2023-05-08T02:28:52.585Z,1.00
2023-05-08T02:29:52.616Z,1.02
2023-05-08T02:30:52.649Z,1.01
2023-05-08T02:31:52.718Z,1.02
2023-05-08T02:32:52.736Z,1.01
2023-05-08T02:33:52.771Z,1.01
2023-05-08T02:35:02.602Z,1.02
2023-05-08T02:35:53.789Z,1.02
2023-05-08T02:36:52.792Z,1.02
2023-05-08T02:37:52.846Z,1.02
2023-05-08T02:38:52.802Z,1.02
2023-05-08T02:39:52.807Z,1.03
2023-05-08T02:40:52.806Z,1.02
2023-05-08T02:41:52.809Z,1.01
2023-05-08T02:42:52.807Z,1.02
2023-05-08T02:43:52.877Z,1.03
2023-05-08T02:44:52.818Z,1.03
2023-05-08T02:45:52.875Z,1.01
2023-05-08T02:46:52.822Z,1.02
2023-05-08T02:47:52.860Z,1.03
2023-05-08T02:48:52.813Z,1.02
2023-05-08T02:49:52.827Z,1.01
2023-05-08T02:50:52.826Z,1.01
2023-05-08T02:51:52.812Z,1.03
2023-05-08T02:52:52.812Z,1.03
2023-05-08T02:53:52.824Z,1.01
2023-05-08T02:54:52.837Z,1.00
2023-05-08T02:55:52.850Z,1.02
2023-05-08T02:56:52.878Z,1.02
2023-05-08T02:57:52.912Z,1.03
2023-05-08T02:58:52.956Z,1.00
2023-05-08T02:59:52.996Z,1.02
2023-05-08T03:00:53.039Z,1.02
2023-05-08T03:01:53.159Z,1.01
2023-05-08T03:02:53.218Z,1.02
2023-05-08T03:03:53.290Z,1.01
2023-05-08T03:04:53.175Z,1.01
2023-05-08T03:05:53.208Z,1.01
2023-05-08T03:06:53.265Z,1.02
2023-05-08T03:07:53.283Z,1.02
2023-05-08T03:08:53.328Z,1.00
2023-05-08T03:09:53.358Z,1.02
2023-05-08T03:10:53.389Z,1.00
2023-05-08T03:11:53.432Z,1.02
2023-05-08T03:12:53.500Z,1.02
2023-05-08T03:13:53.505Z,1.02
2023-05-08T03:14:53.544Z,1.00
2023-05-08T03:15:53.615Z,1.01
2023-05-08T03:16:53.613Z,1.01
2023-05-08T03:17:53.698Z,1.02
2023-05-08T03:18:53.702Z,1.01
2023-05-08T03:19:53.728Z,1.01
2023-05-08T03:20:53.758Z,1.01
2023-05-08T03:21:53.788Z,1.02
2023-05-08T03:22:53.835Z,1.02
2023-05-08T03:23:53.867Z,1.01
2023-05-08T03:24:53.912Z,1.02
2023-05-08T03:25:53.937Z,1.02
2023-05-08T03:26:53.967Z,1.03
2023-05-08T03:27:54.005Z,1.02
2023-05-08T03:28:54.030Z,1.02
2023-05-08T03:29:54.067Z,1.01
2023-05-08T03:30:54.142Z,1.00
2023-05-08T03:31:54.139Z,0.99
2023-05-08T03:32:54.202Z,1.01
2023-05-08T03:33:54.211Z,1.01
2023-05-08T03:34:54.243Z,1.02
2023-05-08T03:35:54.286Z,1.01
2023-05-08T03:36:54.320Z,1.01
2023-05-08T03:37:54.363Z,1.01
2023-05-08T03:38:54.391Z,1.03
2023-05-08T03:39:54.421Z,1.02
2023-05-08T03:40:54.460Z,1.01
2023-05-08T03:41:54.500Z,1.02
2023-05-08T03:42:54.535Z,1.00
2023-05-08T03:43:54.607Z,1.00
2023-05-08T03:44:54.627Z,1.02
2023-05-08T03:45:54.634Z,1.00
2023-05-08T03:46:54.708Z,1.03
2023-05-08T03:47:54.761Z,1.02
2023-05-08T03:48:54.800Z,1.00
2023-05-08T03:49:54.783Z,1.00
2023-05-08T03:50:54.826Z,0.99
2023-05-08T03:51:54.859Z,1.01
2023-05-08T03:52:54.889Z,1.02
2023-05-08T03:53:54.947Z,1.01
2023-05-08T03:54:54.995Z,1.00
2023-05-08T03:55:55.026Z,1.02
2023-05-08T03:56:55.057Z,1.02
2023-05-08T03:57:55.099Z,1.01
2023-05-08T03:58:55.133Z,1.01
2023-05-08T03:59:55.175Z,1.01
2023-05-08T04:00:55.213Z,1.00
2023-05-08T04:01:55.302Z,1.02
2023-05-08T04:02:55.338Z,1.01
2023-05-08T04:03:55.429Z,1.01
2023-05-08T04:04:55.363Z,1.01
2023-05-08T04:05:55.408Z,1.00
2023-05-08T04:06:55.435Z,1.00
2023-05-08T04:07:55.456Z,1.02
2023-05-08T04:08:55.492Z,1.02
2023-05-08T04:09:55.530Z,1.01
2023-05-08T04:10:56.537Z,1.01
2023-05-08T04:11:55.567Z,1.01
2023-05-08T04:12:55.596Z,1.01
2023-05-08T04:13:55.560Z,1.01
2023-05-08T04:14:56.760Z,1.02
2023-05-08T04:15:56.569Z,1.01
2023-05-08T04:16:55.583Z,1.01
2023-05-08T04:17:55.624Z,1.02
2023-05-08T04:18:55.585Z,1.01
2023-05-08T04:19:55.594Z,1.03
2023-05-08T04:20:55.609Z,1.02
2023-05-08T04:21:55.678Z,1.02
2023-05-08T04:22:55.625Z,1.00
2023-05-08T04:23:55.640Z,1.01
2023-05-08T04:24:55.651Z,1.00
2023-05-08T04:25:55.657Z,1.00
2023-05-08T04:26:55.651Z,1.01
2023-05-08T04:27:55.655Z,1.02
2023-05-08T04:28:55.669Z,1.01
2023-05-08T04:29:56.403Z,1.00
2023-05-08T04:30:55.684Z,1.00
2023-05-08T04:31:55.738Z,1.01
2023-05-08T04:32:55.722Z,1.01
2023-05-08T04:33:55.682Z,1.01
2023-05-08T04:34:55.690Z,1.00
2023-05-08T04:35:55.693Z,1.00
2023-05-08T04:36:55.711Z,1.00
2023-05-08T04:37:55.739Z,0.99
2023-05-08T04:38:55.785Z,0.99
2023-05-08T04:39:55.845Z,1.00
2023-05-08T04:40:55.854Z,1.01
2023-05-08T04:41:55.889Z,1.00
2023-05-08T04:42:55.928Z,1.01
2023-05-08T04:43:55.963Z,1.02
2023-05-08T04:44:56.005Z,1.01
2023-05-08T04:45:56.051Z,1.02
2023-05-08T04:46:56.086Z,1.00
2023-05-08T04:47:56.214Z,1.00
2023-05-08T04:48:56.162Z,1.01
2023-05-08T04:49:56.199Z,1.00
2023-05-08T04:50:56.223Z,1.01
2023-05-08T04:51:56.280Z,1.01
2023-05-08T04:52:56.303Z,1.00
2023-05-08T04:53:56.360Z,1.00
2023-05-08T04:54:56.441Z,1.01
2023-05-08T04:55:56.432Z,1.00
2023-05-08T04:56:56.511Z,1.01
2023-05-08T04:57:56.550Z,1.00
2023-05-08T04:58:56.548Z,1.01
2023-05-08T04:59:56.582Z,0.99
2023-05-08T05:00:56.638Z,1.01
2023-05-08T05:01:56.736Z,0.99
2023-05-08T05:02:56.730Z,1.00
2023-05-08T05:03:56.748Z,1.02
2023-05-08T05:04:56.788Z,0.99
2023-05-08T05:05:56.821Z,0.99
2023-05-08T05:06:56.875Z,1.00
2023-05-08T05:07:56.910Z,0.99
2023-05-08T05:08:56.957Z,1.00
2023-05-08T05:09:57.027Z,1.01
2023-05-08T05:10:57.039Z,1.01
2023-05-08T05:11:58.301Z,1.00
2023-05-08T05:12:57.144Z,1.00
2023-05-08T05:13:57.156Z,1.00
2023-05-08T05:14:57.200Z,0.99
2023-05-08T05:15:57.277Z,1.00
2023-05-08T05:16:57.278Z,0.98
2023-05-08T05:17:57.340Z,1.00
2023-05-08T05:18:57.834Z,1.00
2023-05-08T05:19:57.504Z,0.99
2023-05-08T05:20:57.441Z,1.00
2023-05-08T05:21:57.483Z,1.01
2023-05-08T05:22:57.533Z,1.02
2023-05-08T05:23:57.567Z,1.02
2023-05-08T05:24:57.626Z,1.01
2023-05-08T05:25:57.676Z,1.06
2023-05-08T05:26:57.691Z,1.13
2023-05-08T05:27:57.746Z,1.14
2023-05-08T05:28:57.790Z,1.17
2023-05-08T05:29:57.928Z,1.24
2023-05-08T05:30:57.892Z,1.29
2023-05-08T05:31:57.953Z,1.33
2023-05-08T05:32:58.024Z,1.34
2023-05-08T05:33:58.001Z,1.39
2023-05-08T05:34:58.037Z,1.40
2023-05-08T05:35:58.138Z,1.41
2023-05-08T05:36:58.127Z,1.43
2023-05-08T05:37:58.155Z,1.47
2023-05-08T05:38:58.207Z,1.49
2023-05-08T05:39:58.235Z,1.51
2023-05-08T05:40:58.275Z,1.51
2023-05-08T05:41:58.315Z,1.53
2023-05-08T05:42:58.304Z,1.54
2023-05-08T05:43:58.314Z,1.54
2023-05-08T05:44:58.315Z,1.54
2023-05-08T05:45:58.316Z,1.58
2023-05-08T05:46:58.358Z,1.60
2023-05-08T05:47:58.370Z,1.60
2023-05-08T05:48:58.845Z,1.62
2023-05-08T05:49:58.351Z,1.62
2023-05-08T05:50:58.346Z,1.62
2023-05-08T05:51:58.396Z,1.63
2023-05-08T05:52:58.365Z,1.62
2023-05-08T05:53:58.360Z,1.63
2023-05-08T05:54:58.358Z,1.64
2023-05-08T05:55:58.363Z,1.66
2023-05-08T05:56:58.365Z,1.64
2023-05-08T05:57:58.372Z,1.69
2023-05-08T05:58:58.374Z,1.68
2023-05-08T05:59:58.393Z,1.67
2023-05-08T06:00:58.414Z,1.67
2023-05-08T06:01:58.510Z,1.67
2023-05-08T06:02:58.625Z,1.70
2023-05-08T06:03:58.611Z,1.68
2023-05-08T06:04:58.572Z,1.70
2023-05-08T06:05:59.751Z,1.71
2023-05-08T06:06:58.660Z,1.70
2023-05-08T06:07:58.702Z,1.72
2023-05-08T06:08:58.744Z,1.71
2023-05-08T06:09:58.775Z,1.73
2023-05-08T06:10:58.816Z,1.75
2023-05-08T06:11:58.845Z,1.72
2023-05-08T06:12:58.935Z,1.71
2023-05-08T06:13:58.921Z,1.75
2023-05-08T06:14:58.963Z,1.73
2023-05-08T06:15:59.012Z,1.74
2023-05-08T06:16:59.084Z,1.74
2023-05-08T06:17:59.123Z,1.72
2023-05-08T06:18:59.130Z,1.76
2023-05-08T06:19:59.167Z,1.72
2023-05-08T06:20:59.252Z,1.73
2023-05-08T06:21:59.228Z,1.74
2023-05-08T06:22:59.929Z,1.74
2023-05-08T06:23:59.231Z,1.76
2023-05-08T06:24:59.258Z,1.78
2023-05-08T06:25:59.242Z,1.88
2023-05-08T06:26:59.265Z,1.89
2023-05-08T06:27:59.248Z,1.83
2023-05-08T06:28:59.269Z,1.99
2023-05-08T06:29:59.273Z,1.99
2023-05-08T06:30:59.360Z,2.05
2023-05-08T06:31:59.322Z,1.88
2023-05-08T06:32:59.385Z,1.77
2023-05-08T06:33:59.371Z,1.76
2023-05-08T06:34:59.408Z,1.72
2023-05-08T06:35:59.430Z,1.77
2023-05-08T06:36:59.469Z,1.86
2023-05-08T06:37:59.536Z,1.93
2023-05-08T06:38:59.611Z,2.00
2023-05-08T06:40:10.998Z,2.02
2023-05-08T06:41:00.726Z,2.02
2023-05-08T06:41:59.750Z,2.03
2023-05-08T06:42:59.775Z,2.05
2023-05-08T06:43:59.810Z,2.07
2023-05-08T06:44:59.819Z,2.03
2023-05-08T06:45:59.839Z,2.05
2023-05-08T06:46:59.847Z,2.10
2023-05-08T06:47:59.906Z,2.15
2023-05-08T06:48:59.868Z,2.35
2023-05-08T06:49:59.880Z,2.38
2023-05-08T06:50:59.911Z,2.41
2023-05-08T06:51:59.900Z,2.55
2023-05-08T06:52:59.910Z,2.60
2023-05-08T06:53:59.903Z,2.65
2023-05-08T06:55:00.464Z,2.69
2023-05-08T06:55:59.916Z,2.79
2023-05-08T06:56:59.961Z,2.94
2023-05-08T06:57:59.955Z,2.95
2023-05-08T06:59:07.813Z,2.95
2023-05-08T07:00:01.121Z,2.96
2023-05-08T07:00:59.957Z,3.02
2023-05-08T07:01:59.986Z,3.16
2023-05-08T07:02:59.969Z,3.45
2023-05-08T07:03:59.970Z,3.82
2023-05-08T07:04:59.986Z,4.07
2023-05-08T07:05:59.978Z,4.30
2023-05-08T07:06:59.985Z,4.53
2023-05-08T07:07:59.990Z,4.77
2023-05-08T07:08:59.992Z,4.92
2023-05-08T07:10:00.041Z,5.15
2023-05-08T07:11:00.152Z,5.28
2023-05-08T07:12:00.169Z,5.56
2023-05-08T07:13:00.055Z,5.79
2023-05-08T07:13:59.987Z,6.01
2023-05-08T07:15:03.482Z,6.54
2023-05-08T07:16:01.005Z,6.59
2023-05-08T07:16:59.970Z,6.87
2023-05-08T07:18:00.005Z,7.31
2023-05-08T07:18:59.962Z,7.98
2023-05-08T07:19:59.973Z,8.91
2023-05-08T07:20:59.967Z,9.05
2023-05-08T07:21:59.993Z,9.21
2023-05-08T07:22:59.964Z,9.42
2023-05-08T07:24:00.069Z,9.48
2023-05-08T07:24:59.966Z,9.60
2023-05-08T07:25:59.960Z,9.71
2023-05-08T07:26:59.940Z,9.79
2023-05-08T07:28:01.291Z,9.83
2023-05-08T07:28:59.957Z,9.69
2023-05-08T07:29:59.987Z,9.90
2023-05-08T07:30:59.948Z,9.76
2023-05-08T07:32:00.055Z,9.91
2023-05-08T07:33:00.983Z,9.92
2023-05-08T07:33:59.970Z,9.98
2023-05-08T07:34:59.952Z,9.96
2023-05-08T07:35:59.959Z,9.97
2023-05-08T07:36:59.964Z,10.02
2023-05-08T07:37:59.967Z,10.09
2023-05-08T07:38:59.982Z,10.04
2023-05-08T07:39:59.969Z,9.93
2023-05-08T07:41:00.050Z,9.91
2023-05-08T07:41:59.973Z,10.00
2023-05-08T07:42:59.969Z,9.87
2023-05-08T07:43:59.972Z,9.77
2023-05-08T07:44:59.973Z,9.95
2023-05-08T07:45:59.981Z,9.81
2023-05-08T07:46:59.983Z,9.86
2023-05-08T07:48:00.033Z,9.88
2023-05-08T07:48:59.987Z,9.75
2023-05-08T07:50:00.000Z,9.68
2023-05-08T07:51:00.014Z,9.73
2023-05-08T07:52:00.010Z,9.57
2023-05-08T07:53:00.025Z,9.52
2023-05-08T07:54:00.010Z,9.51
2023-05-08T07:55:00.117Z,9.38
2023-05-08T07:56:00.029Z,9.34
2023-05-08T07:57:00.030Z,9.29
2023-05-08T07:58:00.019Z,9.34
2023-05-08T07:59:00.019Z,9.43
2023-05-08T08:00:00.009Z,9.12
2023-05-08T08:01:00.010Z,8.81
2023-05-08T08:02:00.092Z,9.05
2023-05-08T08:03:00.203Z,8.81
2023-05-08T08:04:00.295Z,8.93
2023-05-08T08:05:00.141Z,8.77
2023-05-08T08:06:00.138Z,8.84
2023-05-08T08:07:00.966Z,8.72
2023-05-08T08:08:00.181Z,8.65
2023-05-08T08:09:00.195Z,8.57
2023-05-08T08:10:00.217Z,8.54
2023-05-08T08:11:01.718Z,8.32
2023-05-08T08:12:00.239Z,8.45
2023-05-08T08:13:00.256Z,8.29
2023-05-08T08:14:00.254Z,8.12
2023-05-08T08:15:00.240Z,8.18
2023-05-08T08:16:00.454Z,8.03
2023-05-08T08:17:00.304Z,8.00
2023-05-08T08:18:00.280Z,7.97
2023-05-08T08:19:02.002Z,8.05
2023-05-08T08:20:00.277Z,8.29
2023-05-08T08:21:00.279Z,8.14
2023-05-08T08:22:00.273Z,8.20
2023-05-08T08:23:00.311Z,8.25
2023-05-08T08:24:00.292Z,8.11
2023-05-08T08:25:00.297Z,8.37
2023-05-08T08:26:00.291Z,8.31
2023-05-08T08:27:00.299Z,8.26
2023-05-08T08:28:00.298Z,8.28
2023-05-08T08:29:00.304Z,8.13
2023-05-08T08:30:15.603Z,8.27
2023-05-08T08:31:01.322Z,8.28
2023-05-08T08:32:00.471Z,8.28
2023-05-08T08:33:00.384Z,8.28
2023-05-08T08:34:00.342Z,8.16
2023-05-08T08:35:00.342Z,7.99
2023-05-08T08:36:00.334Z,8.15
2023-05-08T08:37:00.311Z,8.05
2023-05-08T08:38:00.329Z,8.00
2023-05-08T08:39:00.308Z,7.90
2023-05-08T08:40:00.307Z,7.74
2023-05-08T08:41:00.333Z,7.81
2023-05-08T08:42:00.310Z,7.69
2023-05-08T08:43:00.309Z,7.52
2023-05-08T08:44:00.315Z,7.53
2023-05-08T08:45:00.334Z,7.53
2023-05-08T08:46:00.377Z,7.43
2023-05-08T08:47:00.327Z,7.38
2023-05-08T08:48:00.479Z,7.36
2023-05-08T08:49:00.341Z,7.30
2023-05-08T08:50:00.364Z,7.17
2023-05-08T08:51:00.363Z,7.18
2023-05-08T08:52:00.334Z,7.18
2023-05-08T08:53:00.347Z,7.01
2023-05-08T08:54:00.358Z,7.02
2023-05-08T08:55:00.989Z,6.90
2023-05-08T08:56:00.406Z,6.93
2023-05-08T08:57:00.433Z,6.87
2023-05-08T08:58:00.461Z,6.71
2023-05-08T08:59:00.461Z,6.74
2023-05-08T09:00:00.507Z,6.79
2023-05-08T09:01:00.523Z,6.92
2023-05-08T09:02:00.586Z,6.66
2023-05-08T09:03:00.644Z,6.78
2023-05-08T09:04:00.772Z,6.62
2023-05-08T09:05:00.588Z,6.47
2023-05-08T09:06:00.605Z,6.55
2023-05-08T09:07:00.623Z,6.60
2023-05-08T09:08:00.640Z,6.44
2023-05-08T09:09:00.662Z,6.60
2023-05-08T09:10:00.682Z,6.43
2023-05-08T09:11:00.733Z,6.34
2023-05-08T09:12:00.723Z,6.37
2023-05-08T09:13:00.847Z,6.22
2023-05-08T09:14:00.785Z,6.38
2023-05-08T09:15:01.112Z,6.25
2023-05-08T09:16:00.879Z,6.22
2023-05-08T09:17:00.863Z,6.17
2023-05-08T09:18:01.039Z,5.75
2023-05-08T09:19:00.910Z,4.92
2023-05-08T09:20:01.035Z,4.68
2023-05-08T09:21:00.974Z,4.76
2023-05-08T09:22:01.034Z,4.91
2023-05-08T09:23:01.025Z,4.88
2023-05-08T09:24:01.146Z,4.61
2023-05-08T09:25:01.090Z,4.58
2023-05-08T09:26:02.919Z,4.31
2023-05-08T09:27:01.135Z,4.18
2023-05-08T09:28:01.951Z,3.96
2023-05-08T09:29:01.185Z,3.85
2023-05-08T09:30:01.216Z,3.69
2023-05-08T09:31:01.254Z,3.50
2023-05-08T09:32:01.318Z,3.45
2023-05-08T09:33:01.352Z,3.37
2023-05-08T09:34:01.312Z,3.24
2023-05-08T09:35:01.324Z,3.17
2023-05-08T09:36:01.455Z,3.01
2023-05-08T09:37:01.377Z,2.83
2023-05-08T09:38:01.418Z,2.81
2023-05-08T09:39:01.444Z,2.68
2023-05-08T09:40:01.514Z,2.49
2023-05-08T09:41:01.486Z,2.42
2023-05-08T09:42:01.540Z,2.43
2023-05-08T09:43:01.539Z,2.37
2023-05-08T09:44:01.573Z,2.22
2023-05-08T09:45:01.589Z,2.11
2023-05-08T09:46:01.660Z,2.00
2023-05-08T09:47:01.647Z,1.96
2023-05-08T09:48:01.699Z,1.81
2023-05-08T09:49:01.698Z,1.77
2023-05-08T09:50:01.768Z,1.79
2023-05-08T09:51:01.776Z,1.82
2023-05-08T09:52:02.546Z,1.81
2023-05-08T09:53:01.816Z,1.73
2023-05-08T09:54:01.849Z,1.70
2023-05-08T09:55:01.884Z,1.66
2023-05-08T09:56:01.906Z,1.63
2023-05-08T09:57:01.921Z,1.63
2023-05-08T09:58:01.968Z,1.52
2023-05-08T09:59:02.006Z,1.45
2023-05-08T10:00:02.040Z,1.42
2023-05-08T10:01:02.082Z,1.35
2023-05-08T10:02:02.076Z,1.35
2023-05-08T10:03:02.270Z,1.37
2023-05-08T10:04:02.200Z,1.32
2023-05-08T10:05:02.253Z,1.33
2023-05-08T10:06:02.193Z,1.27
2023-05-08T10:07:02.215Z,1.26
2023-05-08T10:08:02.340Z,1.19
2023-05-08T10:09:02.279Z,1.13
2023-05-08T10:10:02.299Z,1.10
2023-05-08T10:11:02.332Z,1.13
2023-05-08T10:12:02.373Z,1.05
2023-05-08T10:13:02.416Z,1.14
2023-05-08T10:14:02.423Z,1.23
2023-05-08T10:15:02.417Z,1.24
2023-05-08T10:16:04.029Z,1.26
2023-05-08T10:17:03.474Z,1.24
2023-05-08T10:18:02.491Z,1.30
2023-05-08T10:19:02.471Z,1.46
2023-05-08T10:20:02.489Z,1.77
2023-05-08T10:21:02.943Z,2.28
2023-05-08T10:22:02.472Z,2.53
2023-05-08T10:23:02.467Z,2.71
2023-05-08T10:24:02.554Z,2.81
2023-05-08T10:25:02.473Z,2.96
2023-05-08T10:26:02.480Z,3.14
2023-05-08T10:27:07.580Z,3.24
2023-05-08T10:28:03.510Z,3.25
2023-05-08T10:29:02.486Z,3.29
2023-05-08T10:30:02.491Z,3.40
2023-05-08T10:31:02.501Z,3.62
2023-05-08T10:32:02.502Z,3.99
2023-05-08T10:33:02.517Z,4.16
2023-05-08T10:34:02.500Z,4.26
2023-05-08T10:35:02.502Z,4.44
2023-05-08T10:36:02.513Z,4.57
2023-05-08T10:37:02.548Z,4.74
2023-05-08T10:38:02.587Z,4.82
2023-05-08T10:39:02.656Z,4.95
2023-05-08T10:40:02.797Z,5.12
2023-05-08T10:41:02.751Z,5.37
2023-05-08T10:42:02.808Z,5.52
2023-05-08T10:43:02.869Z,5.62
2023-05-08T10:44:03.581Z,5.83
2023-05-08T10:45:02.946Z,6.05
2023-05-08T10:46:02.964Z,6.19
2023-05-08T10:47:02.965Z,6.37
2023-05-08T10:48:03.004Z,6.45
2023-05-08T10:49:02.980Z,6.70
2023-05-08T10:50:03.026Z,6.92
2023-05-08T10:51:03.047Z,7.25
2023-05-08T10:52:03.092Z,7.23
2023-05-08T10:53:03.555Z,7.44
2023-05-08T10:54:03.155Z,7.65
2023-05-08T10:55:03.227Z,7.91
2023-05-08T10:56:03.287Z,8.09
2023-05-08T10:57:03.362Z,8.19
2023-05-08T10:58:03.418Z,8.56
2023-05-08T10:59:03.478Z,8.74
2023-05-08T11:00:03.548Z,8.79
2023-05-08T11:01:05.128Z,9.12
2023-05-08T11:02:03.791Z,9.31
2023-05-08T11:03:03.951Z,9.53
2023-05-08T11:04:03.949Z,9.89
2023-05-08T11:05:03.923Z,10.10
2023-05-08T11:06:04.020Z,10.27
2023-05-08T11:07:04.094Z,9.72
2023-05-08T11:08:04.092Z,10.08
2023-05-08T11:09:04.157Z,10.39
2023-05-08T11:10:04.229Z,10.71
2023-05-08T11:11:04.284Z,10.73
2023-05-08T11:12:04.358Z,10.75
2023-05-08T11:13:04.467Z,10.87
2023-05-08T11:14:04.452Z,10.99
2023-05-08T11:15:04.523Z,11.07
2023-05-08T11:16:04.610Z,11.24
2023-05-08T11:17:04.667Z,11.11
2023-05-08T11:18:04.804Z,11.26
2023-05-08T11:19:04.800Z,11.43
2023-05-08T11:20:04.861Z,11.58
2023-05-08T11:21:04.931Z,11.59
2023-05-08T11:22:05.046Z,11.40
2023-05-08T11:23:05.084Z,11.41
2023-05-08T11:24:05.162Z,11.66
2023-05-08T11:25:05.271Z,11.58
2023-05-08T11:26:05.308Z,11.25
2023-05-08T11:27:05.407Z,11.54
2023-05-08T11:28:05.432Z,11.49
2023-05-08T11:29:05.505Z,11.47
2023-05-08T11:30:05.506Z,11.48
2023-05-08T11:31:05.538Z,11.19
2023-05-08T11:32:05.622Z,9.95
2023-05-08T11:33:05.823Z,8.94
2023-05-08T11:34:05.513Z,8.60
2023-05-08T11:35:05.516Z,7.79
2023-05-08T11:36:05.523Z,7.93
2023-05-08T11:37:05.507Z,8.19
2023-05-08T11:38:05.504Z,8.64
2023-05-08T11:39:05.503Z,9.04
2023-05-08T11:40:05.503Z,9.15
2023-05-08T11:41:05.499Z,9.04
2023-05-08T11:42:05.497Z,9.26
2023-05-08T11:43:05.490Z,9.19
2023-05-08T11:44:05.488Z,9.13
2023-05-08T11:45:05.494Z,9.10
2023-05-08T11:46:05.494Z,9.06
2023-05-08T11:47:05.512Z,9.27
2023-05-08T11:48:05.545Z,9.06
2023-05-08T11:49:05.514Z,9.05
2023-05-08T11:50:05.508Z,9.15
2023-05-08T11:51:05.517Z,9.09
2023-05-08T11:52:05.517Z,8.97
2023-05-08T11:53:05.517Z,9.04
2023-05-08T11:54:05.501Z,9.05
2023-05-08T11:55:05.515Z,9.02
2023-05-08T11:56:05.547Z,8.98
2023-05-08T11:57:05.583Z,8.97
2023-05-08T11:58:05.602Z,8.82
2023-05-08T11:59:05.614Z,8.90
2023-05-08T12:00:05.637Z,8.55
2023-05-08T12:01:05.698Z,8.73
2023-05-08T12:02:09.276Z,8.48
2023-05-08T12:03:05.744Z,8.50
2023-05-08T12:04:05.946Z,8.51
2023-05-08T12:05:05.696Z,8.53
2023-05-08T12:06:05.670Z,8.54
2023-05-08T12:07:05.689Z,8.63
2023-05-08T12:08:05.691Z,8.48
2023-05-08T12:09:05.693Z,8.43
2023-05-08T12:10:05.679Z,8.40
2023-05-08T12:11:05.690Z,8.36
2023-05-08T12:12:05.675Z,8.37
2023-05-08T12:13:05.707Z,8.32
2023-05-08T12:14:05.687Z,8.22
2023-05-08T12:15:05.683Z,8.21
2023-05-08T12:16:05.667Z,8.23
2023-05-08T12:17:05.710Z,8.28
2023-05-08T12:18:05.722Z,8.40
2023-05-08T12:19:05.675Z,8.35
2023-05-08T12:20:05.653Z,8.29
2023-05-08T12:21:05.650Z,8.29
2023-05-08T12:22:05.643Z,8.19
2023-05-08T12:23:05.636Z,8.15
2023-05-08T12:24:05.633Z,8.24
2023-05-08T12:25:05.641Z,8.12
2023-05-08T12:26:05.633Z,7.97
2023-05-08T12:27:05.635Z,7.87
2023-05-08T12:28:05.628Z,7.80
2023-05-08T12:29:05.624Z,7.91
2023-05-08T12:30:05.617Z,7.76
2023-05-08T12:31:05.657Z,7.76
2023-05-08T12:32:05.624Z,7.70
2023-05-08T12:33:05.700Z,7.75
2023-05-08T12:34:05.611Z,7.77
2023-05-08T12:35:05.626Z,7.77
2023-05-08T12:36:05.604Z,7.68
2023-05-08T12:37:05.608Z,7.66
2023-05-08T12:38:05.592Z,7.71
2023-05-08T12:39:05.594Z,7.70
2023-05-08T12:40:05.610Z,7.59
2023-05-08T12:41:05.590Z,7.65
2023-05-08T12:42:05.587Z,7.65
2023-05-08T12:43:05.579Z,7.58
2023-05-08T12:44:05.580Z,7.50
2023-05-08T12:45:05.566Z,7.49
2023-05-08T12:46:05.621Z,7.50
2023-05-08T12:47:05.605Z,7.42
2023-05-08T12:48:05.682Z,7.44
2023-05-08T12:49:05.556Z,7.36
2023-05-08T12:50:05.549Z,7.36
2023-05-08T12:51:05.543Z,7.24
2023-05-08T12:52:05.554Z,7.33
2023-05-08T12:53:05.541Z,7.28
2023-05-08T12:54:05.539Z,7.00
2023-05-08T12:55:05.537Z,7.03
2023-05-08T12:56:05.512Z,7.09
2023-05-08T12:57:05.522Z,7.00
2023-05-08T12:58:05.518Z,7.04
2023-05-08T12:59:05.536Z,7.00
2023-05-08T13:00:05.501Z,7.05
2023-05-08T13:01:05.495Z,7.07
2023-05-08T13:02:05.525Z,6.98
2023-05-08T13:03:05.528Z,6.83
2023-05-08T13:04:05.580Z,6.80
2023-05-08T13:05:05.442Z,6.68
2023-05-08T13:06:05.435Z,6.60
2023-05-08T13:07:05.433Z,6.68
2023-05-08T13:08:05.430Z,6.58
2023-05-08T13:09:05.424Z,6.56
2023-05-08T13:10:05.400Z,6.56
2023-05-08T13:11:05.393Z,6.46
2023-05-08T13:12:05.377Z,6.44
2023-05-08T13:13:05.416Z,6.48
2023-05-08T13:14:05.360Z,6.49
2023-05-08T13:15:05.367Z,6.44
2023-05-08T13:16:05.444Z,6.51
2023-05-08T13:17:05.362Z,6.44
2023-05-08T13:18:05.367Z,6.35